Time;durP1;ratioP1;P1;durP2;ratioP2;P2;SDS_P1;SDS_P2;PMS_P1;PMS_P2;Temp;Humidity;BMP_temperature;BMP_pressure;BME280_temperature;BME280_humidity;BME280_pressure;Samples;Min_cycle;Max_cycle;Signal;HPM_P1;HPM_P2
2023/12/26 00:01:48;;;;;;;;;0.00;0.00;;;;;16.60;98.98;101279.75;5038979;28;45488;-82
2023/12/26 00:04:15;;;;;;;;;0.00;0.00;;;;;16.54;98.81;101277.38;5055750;28;45519;-81
2023/12/26 00:06:43;;;;;;;;;0.00;0.00;;;;;16.60;99.33;101276.25;5055734;28;45329;-81
2023/12/26 00:09:09;;;;;;;;;0.00;0.00;;;;;16.63;98.96;101279.59;5039305;28;45420;-82
2023/12/26 00:11:40;;;;;;;;;0.00;0.00;;;;;16.54;98.68;101269.50;5038746;28;46455;-80
2023/12/26 00:14:06;;;;;;;;;0.00;0.00;;;;;16.61;98.99;101275.34;5056579;28;45457;-82
2023/12/26 00:16:31;;;;;;;;;0.00;0.00;;;;;16.59;99.06;101275.41;5038098;28;60695;-82
2023/12/26 00:18:57;;;;;;;;;0.00;0.00;;;;;16.62;98.83;101277.03;5038373;28;45395;-82
2023/12/26 00:21:22;;;;;;;;;0.00;0.00;;;;;16.63;98.91;101262.97;5038467;28;46058;-82
2023/12/26 00:23:47;;;;;;;;;0.00;0.00;;;;;16.65;99.07;101266.38;5056613;28;45535;-82
2023/12/26 00:26:13;;;;;;;;;0.00;0.00;;;;;16.64;98.79;101264.66;5055961;28;58528;-82
2023/12/26 00:28:38;;;;;;;;;0.00;0.00;;;;;16.60;98.48;101258.72;5056512;28;45254;-81
2023/12/26 00:31:04;;;;;;;;;0.00;0.00;;;;;16.62;98.71;101261.25;5055683;28;64223;-81
2023/12/26 00:33:29;;;;;;;;;0.00;0.00;;;;;16.67;98.43;101259.28;5037412;28;59840;-82
2023/12/26 00:35:56;;;;;;;;;0.00;0.00;;;;;16.64;99.01;101254.16;5055851;28;54367;-82
2023/12/26 00:38:23;;;;;;;;;0.00;0.00;;;;;16.63;98.74;101257.72;5056345;28;45432;-82
2023/12/26 00:40:48;;;;;;;;;0.00;0.00;;;;;16.62;98.71;101243.75;5056016;28;46571;-81
2023/12/26 00:43:13;;;;;;;;;0.00;0.00;;;;;16.65;98.61;101248.00;5054028;28;71775;-82
2023/12/26 00:45:39;;;;;;;;;0.00;0.00;;;;;16.58;98.56;101242.16;5055802;28;47274;-82
2023/12/26 00:48:04;;;;;;;;;0.00;0.00;;;;;16.65;98.63;101258.50;5055976;28;45250;-82
2023/12/26 00:50:29;;;;;;;;;1.00;1.00;;;;;16.63;98.36;101252.47;5056005;28;45262;-82
2023/12/26 00:52:55;;;;;;;;;0.00;0.00;;;;;16.57;97.87;101253.59;5055664;28;54333;-81
2023/12/26 00:55:20;;;;;;;;;0.00;0.00;;;;;16.62;98.13;101256.00;5055541;28;57240;-82
2023/12/26 00:57:46;;;;;;;;;0.00;0.00;;;;;16.54;98.16;101248.47;5037907;28;45450;-82
2023/12/26 01:00:11;;;;;;;;;0.00;0.00;;;;;16.52;98.66;101244.22;5037939;28;46343;-82
2023/12/26 01:02:37;;;;;;;;;0.00;0.00;;;;;16.54;98.54;101247.63;5037671;28;45171;-82
2023/12/26 01:05:03;;;;;;;;;0.00;0.00;;;;;16.50;98.52;101243.44;5056226;28;45207;-81
2023/12/26 01:07:28;;;;;;;;;0.00;0.00;;;;;16.46;98.28;101253.25;5056122;28;45301;-82
2023/12/26 01:09:54;;;;;;;;;0.00;0.00;;;;;16.42;98.17;101255.16;5055380;28;45660;-81
2023/12/26 01:12:20;;;;;;;;;0.00;0.00;;;;;16.43;98.36;101251.59;5055852;28;45317;-81
2023/12/26 01:14:45;;;;;;;;;0.00;0.00;;;;;16.40;98.40;101251.75;5037262;28;59057;-81
2023/12/26 01:17:10;;;;;;;;;0.00;0.00;;;;;16.44;98.14;101241.94;5055370;28;45427;-81
2023/12/26 01:19:36;;;;;;;;;0.00;0.00;;;;;16.45;98.10;101244.53;5055818;28;46015;-81
2023/12/26 01:22:02;;;;;;;;;0.00;0.00;;;;;16.45;97.86;101241.00;5055412;28;60116;-81
2023/12/26 01:24:28;;;;;;;;;0.00;0.00;;;;;16.44;98.70;101240.16;5055882;28;45465;-81
2023/12/26 01:26:53;;;;;;;;;0.00;0.00;;;;;16.43;98.10;101248.97;5037985;28;45500;-82
2023/12/26 01:29:18;;;;;;;;;0.00;0.00;;;;;16.45;98.24;101236.63;5055564;28;45630;-82
2023/12/26 01:31:44;;;;;;;;;0.00;0.00;;;;;16.47;98.67;101246.19;5055310;28;45515;-81
2023/12/26 01:34:09;;;;;;;;;0.00;0.00;;;;;16.49;98.64;101249.59;5055285;28;56090;-82
2023/12/26 01:36:35;;;;;;;;;0.00;0.00;;;;;16.47;98.83;101246.19;5055509;28;45492;-81
2023/12/26 01:39:00;;;;;;;;;0.00;0.00;;;;;16.47;98.98;101239.16;5055526;28;46074;-81
2023/12/26 01:41:26;;;;;;;;;0.00;0.00;;;;;16.32;99.28;101250.38;5054781;28;60227;-81
2023/12/26 01:43:51;;;;;;;;;0.00;0.00;;;;;16.44;99.42;101252.47;5055329;28;45560;-81
2023/12/26 01:46:17;;;;;;;;;0.00;0.00;;;;;16.44;99.48;101237.53;5055499;28;45389;-82
2023/12/26 01:48:44;;;;;;;;;0.00;0.00;;;;;16.39;99.54;101243.94;5036769;28;66063;-81
2023/12/26 01:51:11;;;;;;;;;0.00;0.00;;;;;16.42;100.00;101236.75;5037520;28;45347;-82
2023/12/26 01:53:39;;;;;;;;;0.00;0.00;;;;;16.38;100.00;101234.31;5037493;28;45463;-81
2023/12/26 01:56:07;;;;;;;;;0.00;0.00;;;;;16.44;100.00;101242.78;5037600;28;45398;-81
2023/12/26 01:58:33;;;;;;;;;2.50;2.50;;;;;16.43;100.00;101234.97;5037380;28;47502;-82
2023/12/26 02:00:58;;;;;;;;;0.00;0.00;;;;;16.40;100.00;101241.22;5036616;28;59480;-81
2023/12/26 02:03:26;;;;;;;;;0.00;0.00;;;;;16.38;100.00;101231.69;5054638;28;62022;-81
2023/12/26 02:05:51;;;;;;;;;0.00;0.00;;;;;16.34;100.00;101246.75;5055258;28;45440;-82
2023/12/26 02:08:16;;;;;;;;;0.00;0.00;;;;;16.34;100.00;101238.03;5054446;28;69076;-82
2023/12/26 02:10:42;;;;;;;;;0.00;0.00;;;;;16.31;100.00;101236.41;5020513;28;48654;-81
2023/12/26 02:13:07;;;;;;;;;0.00;0.00;;;;;16.22;100.00;101248.16;5055380;28;45415;-81
2023/12/26 02:15:32;;;;;;;;;0.00;0.00;;;;;16.28;100.00;101257.53;5036195;28;57120;-81
2023/12/26 02:17:58;;;;;;;;;0.00;0.00;;;;;16.15;100.00;101269.50;5054321;28;63871;-81
2023/12/26 02:20:23;;;;;;;;;0.00;0.00;;;;;16.19;100.00;101258.78;5055111;28;45491;-80
2023/12/26 02:22:49;;;;;;;;;0.00;0.00;;;;;16.26;100.00;101259.38;5054591;28;57552;-81
2023/12/26 02:25:15;;;;;;;;;0.00;0.00;;;;;16.07;100.00;101275.09;5037221;28;45505;-81
2023/12/26 02:27:41;;;;;;;;;0.00;0.00;;;;;16.23;100.00;101265.63;5057529;28;45790;-81
2023/12/26 02:30:08;;;;;;;;;0.00;0.00;;;;;16.33;100.00;101266.06;5039417;28;66221;-81
2023/12/26 02:32:35;;;;;;;;;0.00;0.00;;;;;16.24;100.00;101279.63;5058608;28;45317;-81
2023/12/26 02:35:02;;;;;;;;;0.00;0.00;;;;;16.41;100.00;101273.59;5040503;28;45651;-81
2023/12/26 02:37:28;;;;;;;;;0.00;0.00;;;;;16.40;100.00;101264.88;5058292;28;46541;-82
2023/12/26 02:39:53;;;;;;;;;0.00;0.00;;;;;16.40;100.00;101279.78;5040042;28;51184;-81
2023/12/26 02:42:19;;;;;;;;;0.00;0.00;;;;;16.43;100.00;101263.88;5039590;28;57738;-81
2023/12/26 02:44:45;;;;;;;;;0.00;0.00;;;;;16.44;100.00;101266.44;5029627;28;45278;-81
2023/12/26 02:47:10;;;;;;;;;0.00;0.00;;;;;16.42;100.00;101268.28;5037784;28;53082;-81
2023/12/26 02:49:35;;;;;;;;;0.00;0.00;;;;;16.48;100.00;101258.44;5037369;28;64177;-81
2023/12/26 02:52:02;;;;;;;;;0.00;0.00;;;;;16.48;100.00;101261.91;5038060;28;45326;-81
2023/12/26 02:54:28;;;;;;;;;3.00;3.00;;;;;16.41;100.00;101265.72;5020105;28;45495;-81
2023/12/26 02:56:53;;;;;;;;;0.00;0.00;;;;;16.44;100.00;101263.81;5037935;28;45425;-82
2023/12/26 02:59:18;;;;;;;;;0.00;0.00;;;;;16.44;100.00;101253.31;5037292;28;45223;-81
2023/12/26 03:01:45;;;;;;;;;0.00;0.00;;;;;16.52;100.00;101260.84;5037418;28;59183;-82
2023/12/26 03:04:10;;;;;;;;;0.00;0.00;;;;;16.44;100.00;101261.19;5037884;28;45491;-82
2023/12/26 03:06:35;;;;;;;;;0.00;0.00;;;;;16.48;100.00;101271.56;5037504;28;46299;-81
2023/12/26 03:09:01;;;;;;;;;0.00;0.00;;;;;16.50;100.00;101256.59;5037081;28;60154;-81
2023/12/26 03:11:27;;;;;;;;;0.00;0.00;;;;;16.41;100.00;101276.25;5037499;28;45351;-81
2023/12/26 03:13:52;;;;;;;;;0.00;0.00;;;;;16.45;100.00;101264.66;5037722;28;45366;-81
2023/12/26 03:16:18;;;;;;;;;0.00;0.00;;;;;16.71;100.00;101260.84;5037430;28;46445;-82
2023/12/26 03:18:43;;;;;;;;;0.00;0.00;;;;;16.45;100.00;101273.41;5036122;28;45491;-81
2023/12/26 03:21:09;;;;;;;;;0.00;0.00;;;;;16.47;100.00;101270.69;5019848;28;45464;-81
2023/12/26 03:23:34;;;;;;;;;0.00;0.00;;;;;16.48;100.00;101274.19;5037529;28;45420;-81
2023/12/26 03:25:59;;;;;;;;;0.00;0.00;;;;;16.49;100.00;101271.47;5036270;28;65554;-81
2023/12/26 03:28:25;;;;;;;;;0.00;0.00;;;;;16.50;100.00;101264.47;5036704;28;64275;-81
2023/12/26 03:30:50;;;;;;;;;0.00;0.00;;;;;16.53;100.00;101266.94;5037419;28;45314;-81
2023/12/26 03:33:16;;;;;;;;;0.00;0.00;;;;;16.49;100.00;101266.22;5036714;28;58886;-81
2023/12/26 03:35:42;;;;;;;;;0.00;0.00;;;;;16.52;100.00;101270.50;5037011;28;46317;-82
2023/12/26 03:38:07;;;;;;;;;0.00;0.00;;;;;16.48;100.00;101269.78;5035302;28;63068;-81
2023/12/26 03:40:32;;;;;;;;;0.00;0.00;;;;;16.37;100.00;101272.03;5036158;28;56487;-81
2023/12/26 03:42:58;;;;;;;;;0.00;0.00;;;;;16.48;100.00;101259.28;5036640;28;54713;-81
2023/12/26 03:45:26;;;;;;;;;0.00;0.00;;;;;16.51;100.00;101260.91;5038949;28;47128;-81
2023/12/26 03:47:52;;;;;;;;;0.00;0.00;;;;;16.54;100.00;101248.47;5057286;28;45282;-81
2023/12/26 03:50:17;;;;;;;;;0.00;0.00;;;;;16.54;100.00;101245.84;5057204;28;45475;-81
2023/12/26 03:52:43;;;;;;;;;0.00;0.00;;;;;16.55;100.00;101241.47;5056469;28;62731;-81
2023/12/26 03:55:08;;;;;;;;;0.00;0.00;;;;;16.54;100.00;101248.47;5056252;28;57368;-81
2023/12/26 03:57:34;;;;;;;;;0.00;0.00;;;;;16.53;100.00;101261.69;5056764;28;45448;-81
2023/12/26 03:59:59;;;;;;;;;0.00;0.00;;;;;16.52;100.00;101255.59;5056357;28;60832;-82
2023/12/26 04:02:24;;;;;;;;;0.00;0.00;;;;;16.55;100.00;101268.59;5056997;28;45369;-82
2023/12/26 04:04:50;;;;;;;;;0.00;0.00;;;;;16.53;100.00;101264.31;5056782;28;45393;-81
2023/12/26 04:07:15;;;;;;;;;0.00;0.00;;;;;16.52;100.00;101268.72;5038254;28;60093;-81
2023/12/26 04:09:40;;;;;;;;;0.00;0.00;;;;;16.43;100.00;101271.75;5038126;28;53827;-81
2023/12/26 04:12:06;;;;;;;;;0.00;0.00;;;;;16.53;100.00;101266.94;5056079;28;61632;-81
2023/12/26 04:14:31;;;;;;;;;0.00;0.00;;;;;16.49;100.00;101268.84;5038589;28;46865;-81
2023/12/26 04:16:56;;;;;;;;;0.00;0.00;;;;;16.51;100.00;101269.66;5055904;28;66069;-81
2023/12/26 04:19:22;;;;;;;;;0.00;0.00;;;;;16.53;100.00;101267.81;5056583;28;45317;-81
2023/12/26 04:21:47;;;;;;;;;0.00;0.00;;;;;16.58;100.00;101271.06;5056867;28;45246;-81
2023/12/26 04:24:13;;;;;;;;;0.00;0.00;;;;;16.47;100.00;101275.94;5056009;28;50083;-81
2023/12/26 04:26:38;;;;;;;;;0.00;0.00;;;;;16.54;100.00;101277.38;5056240;28;54771;-81
2023/12/26 04:29:03;;;;;;;;;0.00;0.00;;;;;16.50;100.00;101277.59;5056614;28;45254;-81
2023/12/26 04:31:29;;;;;;;;;0.00;0.00;;;;;16.53;100.00;101277.44;5056582;28;45313;-81
2023/12/26 04:33:54;;;;;;;;;0.00;0.00;;;;;16.51;100.00;101284.56;5055718;28;67091;-81
2023/12/26 04:36:20;;;;;;;;;0.00;0.00;;;;;16.51;100.00;101297.69;5038291;28;45448;-81
2023/12/26 04:38:45;;;;;;;;;0.00;0.00;;;;;16.47;100.00;101294.34;5056209;28;45446;-82
2023/12/26 04:41:11;;;;;;;;;0.00;0.00;;;;;16.41;100.00;101313.88;5055769;28;60301;-82
2023/12/26 04:43:37;;;;;;;;;0.00;0.00;;;;;16.39;100.00;101299.94;5055856;28;46250;-81
2023/12/26 04:46:02;;;;;;;;;0.00;0.00;;;;;16.49;100.00;101300.38;5036244;28;45400;-81
2023/12/26 04:48:27;;;;;;;;;0.00;0.00;;;;;16.48;100.00;101306.56;5035206;28;45498;-81
2023/12/26 04:50:53;;;;;;;;;0.00;0.00;;;;;16.51;100.00;101301.19;5035728;28;45515;-81
2023/12/26 04:53:18;;;;;;;;;0.00;0.00;;;;;16.55;100.00;101300.13;5027712;28;66163;-82
2023/12/26 04:55:43;;;;;;;;;0.00;0.00;;;;;16.55;100.00;101301.91;5035862;28;45384;-81
2023/12/26 04:58:09;;;;;;;;;0.00;0.00;;;;;16.49;100.00;101307.41;5034419;28;56890;-82
2023/12/26 05:00:34;;;;;;;;;0.00;0.00;;;;;16.48;100.00;101309.19;5035676;28;45373;-82
2023/12/26 05:03:00;;;;;;;;;0.00;0.00;;;;;16.54;100.00;101298.41;5035799;28;45421;-82
2023/12/26 05:05:26;;;;;;;;;0.00;0.00;;;;;16.50;100.00;101304.72;5036050;28;45385;-81
2023/12/26 05:07:51;;;;;;;;;0.00;0.00;;;;;16.51;100.00;101305.56;5035638;28;45357;-81
2023/12/26 05:10:16;;;;;;;;;0.00;0.00;;;;;16.49;100.00;101321.41;5032618;28;45422;-81
2023/12/26 05:12:42;;;;;;;;;0.00;0.00;;;;;16.47;100.00;101320.63;5035929;28;46574;-82
2023/12/26 05:15:08;;;;;;;;;0.00;0.00;;;;;16.55;100.00;101313.25;5035876;28;45465;-82
2023/12/26 05:17:33;;;;;;;;;0.00;0.00;;;;;16.57;100.00;101319.31;5035921;28;45480;-82
2023/12/26 05:20:00;;;;;;;;;0.00;0.00;;;;;16.62;100.00;101322.59;5035805;28;45298;-82
2023/12/26 05:22:26;;;;;;;;;0.00;0.00;;;;;16.60;100.00;101334.94;5017404;28;47277;-82
2023/12/26 05:24:51;;;;;;;;;0.00;0.00;;;;;16.63;100.00;101331.31;5035739;28;45464;-82
2023/12/26 05:27:17;;;;;;;;;0.00;0.00;;;;;16.61;100.00;101333.16;5035156;28;59227;-81
2023/12/26 05:29:43;;;;;;;;;0.00;0.00;;;;;16.61;100.00;101327.91;5033686;28;45426;-82
2023/12/26 05:32:09;;;;;;;;;0.75;0.75;;;;;16.62;100.00;101329.59;5001221;28;46166;-81
2023/12/26 05:34:34;;;;;;;;;0.00;0.00;;;;;16.62;100.00;101346.25;5035554;28;45317;-81
2023/12/26 05:37:00;;;;;;;;;0.00;0.00;;;;;16.57;100.00;101342.97;5035437;28;45530;-82
2023/12/26 05:39:25;;;;;;;;;0.00;0.00;;;;;16.56;100.00;101343.88;5034387;28;45482;-82
2023/12/26 05:41:51;;;;;;;;;0.00;0.00;;;;;16.48;100.00;101356.50;5032785;28;61040;-81
2023/12/26 05:44:16;;;;;;;;;0.00;0.00;;;;;16.52;100.00;101359.84;5034752;28;61195;-81
2023/12/26 05:46:43;;;;;;;;;0.00;0.00;;;;;16.42;100.00;101367.28;5055680;28;45466;-81
2023/12/26 05:49:08;;;;;;;;;0.00;0.00;;;;;16.53;100.00;101361.53;5038019;28;45419;-82
2023/12/26 05:51:34;;;;;;;;;0.00;0.00;;;;;16.58;100.00;101372.72;5055215;28;46463;-82
2023/12/26 05:53:59;;;;;;;;;0.00;0.00;;;;;16.52;100.00;101373.00;5037533;28;45312;-81
2023/12/26 05:56:25;;;;;;;;;0.00;0.00;;;;;16.56;100.00;101371.94;5037611;28;45377;-82
2023/12/26 05:58:50;;;;;;;;;0.00;0.00;;;;;16.53;100.00;101375.56;5055078;28;54796;-81
2023/12/26 06:01:15;;;;;;;;;0.00;0.00;;;;;16.55;100.00;101378.13;5037939;28;46073;-81
2023/12/26 06:03:41;;;;;;;;;0.00;0.00;;;;;16.49;100.00;101378.38;5059156;28;45423;-81
2023/12/26 06:06:13;;;;;;;;;0.00;0.00;;;;;16.54;100.00;101382.50;5058955;28;45424;-81
2023/12/26 06:08:39;;;;;;;;;0.00;0.00;;;;;16.52;100.00;101386.13;5059031;28;45299;-81
2023/12/26 06:11:05;;;;;;;;;0.00;0.00;;;;;16.55;100.00;101388.63;5040941;28;46171;-81
2023/12/26 06:13:30;;;;;;;;;0.00;0.00;;;;;16.53;100.00;101388.69;5058150;28;64567;-82
2023/12/26 06:15:56;;;;;;;;;0.00;0.00;;;;;16.57;100.00;101389.41;5058935;28;45704;-82
2023/12/26 06:18:21;;;;;;;;;0.00;0.00;;;;;16.58;100.00;101381.44;5040987;28;45394;-81
2023/12/26 06:20:46;;;;;;;;;0.00;0.00;;;;;16.59;100.00;101383.16;5058233;28;45353;-82
2023/12/26 06:23:12;;;;;;;;;0.00;0.00;;;;;16.56;100.00;101382.44;5058829;28;45286;-82
2023/12/26 06:25:37;;;;;;;;;0.00;0.00;;;;;16.48;100.00;101368.78;5040626;28;45395;-81
2023/12/26 06:28:04;;;;;;;;;0.00;0.00;;;;;16.48;100.00;101374.06;5058088;28;60068;-81
2023/12/26 06:30:29;;;;;;;;;0.00;0.00;;;;;16.51;100.00;101359.00;5058452;28;46103;-81
2023/12/26 06:32:56;;;;;;;;;0.00;0.00;;;;;16.48;100.00;101360.91;5039875;28;60634;-82
2023/12/26 06:35:21;;;;;;;;;0.00;0.00;;;;;16.39;100.00;101365.63;5040154;28;45387;-82
2023/12/26 06:37:46;;;;;;;;;0.00;0.00;;;;;16.49;100.00;101373.13;5058152;28;52934;-82
2023/12/26 06:40:12;;;;;;;;;0.00;0.00;;;;;16.45;100.00;101372.38;5057575;28;66302;-82
2023/12/26 06:42:37;;;;;;;;;0.00;0.00;;;;;16.47;100.00;101386.31;5040043;28;45347;-81
2023/12/26 06:45:02;;;;;;;;;0.00;0.00;;;;;16.39;100.00;101394.53;5057544;28;58232;-81
2023/12/26 06:47:28;;;;;;;;;0.00;0.00;;;;;16.44;100.00;101402.22;5058396;28;45421;-81
2023/12/26 06:49:53;;;;;;;;;0.00;0.00;;;;;16.39;100.00;101396.31;5038930;28;67247;-81
2023/12/26 06:52:19;;;;;;;;;0.00;0.00;;;;;16.25;100.00;101403.00;5040169;28;45413;-80
2023/12/26 06:54:45;;;;;;;;;0.00;0.00;;;;;16.39;100.00;101399.78;5058331;28;45420;-81
2023/12/26 06:57:15;;;;;;;;;0.00;0.00;;;;;16.31;100.00;101416.81;5058130;28;45496;-81
2023/12/26 06:59:45;;;;;;;;;0.00;0.00;;;;;16.32;100.00;101408.84;5058181;28;45340;-81
2023/12/26 07:02:10;;;;;;;;;0.00;0.00;;;;;16.38;100.00;101400.72;5031873;28;45440;-81
2023/12/26 07:04:35;;;;;;;;;0.00;0.00;;;;;16.41;100.00;101407.59;5057709;28;45274;-82
2023/12/26 07:07:01;;;;;;;;;0.00;0.00;;;;;16.44;100.00;101418.84;5057445;28;59785;-81
2023/12/26 07:09:26;;;;;;;;;0.00;0.00;;;;;16.43;100.00;101421.53;5038967;28;67573;-81
2023/12/26 07:11:51;;;;;;;;;0.00;0.00;;;;;16.46;100.00;101421.41;5038966;28;59867;-80
2023/12/26 07:14:17;;;;;;;;;0.00;0.00;;;;;16.50;100.00;101430.03;5058168;28;45316;-81
2023/12/26 07:16:43;;;;;;;;;0.00;0.00;;;;;16.42;100.00;101436.44;5057699;28;45348;-81
2023/12/26 07:19:08;;;;;;;;;0.00;0.00;;;;;16.47;100.00;101443.28;5056711;28;68122;-81
2023/12/26 07:21:33;;;;;;;;;0.00;0.00;;;;;16.44;100.00;101453.00;5056958;28;66812;-81
2023/12/26 07:23:59;;;;;;;;;0.00;0.00;;;;;16.37;100.00;101451.53;5057819;28;45281;-81
2023/12/26 07:26:24;;;;;;;;;0.00;0.00;;;;;16.47;100.00;101456.41;5057517;28;49810;-82
2023/12/26 07:28:49;;;;;;;;;0.00;0.00;;;;;16.43;100.00;101447.81;5039273;28;50390;-81
2023/12/26 07:31:21;;;;;;;;;0.00;0.00;;;;;16.47;100.00;101456.41;5057596;28;45365;-81
2023/12/26 07:33:51;;;;;;;;;0.00;0.00;;;;;16.40;100.00;101464.56;5057300;28;45317;-81
2023/12/26 07:36:16;;;;;;;;;0.00;0.00;;;;;16.28;100.00;101477.34;5031953;28;45403;-81
2023/12/26 07:38:42;;;;;;;;;0.00;0.00;;;;;16.30;100.00;101478.97;5039333;28;46998;-82
2023/12/26 07:41:07;;;;;;;;;0.00;0.00;;;;;16.37;100.00;101485.69;5057308;28;45522;-81
2023/12/26 07:43:32;;;;;;;;;0.00;0.00;;;;;16.41;100.00;101483.81;5038545;28;63231;-82
2023/12/26 07:45:58;;;;;;;;;0.00;0.00;;;;;16.37;100.00;101485.69;5056608;28;60593;-81
2023/12/26 07:48:23;;;;;;;;;0.00;0.00;;;;;16.34;100.00;101487.59;5056872;28;46427;-81
2023/12/26 07:50:48;;;;;;;;;0.00;0.00;;;;;16.35;100.00;101500.69;5056781;28;58840;-81
2023/12/26 07:53:14;;;;;;;;;1.00;1.00;;;;;16.33;100.00;101504.28;5022125;28;54703;-81
2023/12/26 07:55:39;;;;;;;;;0.00;0.00;;;;;16.33;100.00;101506.94;5041558;28;59209;-81
2023/12/26 07:58:05;;;;;;;;;0.00;0.00;;;;;16.38;100.00;101495.31;5057602;28;45302;-82
2023/12/26 08:00:30;;;;;;;;;0.00;0.00;;;;;16.34;100.00;101514.72;5039188;28;45372;-82
2023/12/26 08:02:56;;;;;;;;;3.00;0.00;;;;;16.37;100.00;101517.22;5057143;28;45348;-81
2023/12/26 08:05:21;;;;;;;;;0.00;0.00;;;;;16.37;100.00;101525.13;5057241;28;45464;-81
2023/12/26 08:07:47;;;;;;;;;0.00;0.00;;;;;16.39;100.00;101538.19;5057277;28;45399;-82
2023/12/26 08:10:12;;;;;;;;;0.00;0.00;;;;;16.37;100.00;101537.41;5057387;28;45368;-82
2023/12/26 08:12:38;;;;;;;;;0.00;0.00;;;;;16.34;100.00;101530.47;5039183;28;45375;-82
2023/12/26 08:15:03;;;;;;;;;0.00;0.00;;;;;16.36;100.00;101541.81;5056340;28;62672;-81
2023/12/26 08:17:29;;;;;;;;;0.00;0.00;;;;;16.39;100.00;101546.06;5056824;28;46259;-82
2023/12/26 08:19:54;;;;;;;;;0.00;0.00;;;;;16.44;100.00;101555.47;5055974;28;65334;-81
2023/12/26 08:22:19;;;;;;;;;0.00;0.00;;;;;16.44;100.00;101557.25;5056552;28;51624;-82
2023/12/26 08:24:45;;;;;;;;;0.00;0.00;;;;;16.42;100.00;101564.34;5056123;28;45293;-82
2023/12/26 08:27:10;;;;;;;;;0.00;0.00;;;;;16.46;100.00;101565.94;5037917;28;66816;-81
2023/12/26 08:29:35;;;;;;;;;0.00;0.00;;;;;16.41;100.00;101570.50;5038209;28;61178;-81
2023/12/26 08:32:01;;;;;;;;;0.00;0.00;;;;;16.43;100.00;101573.94;5055764;28;54695;-81
2023/12/26 08:34:26;;;;;;;;;0.00;0.00;;;;;16.43;100.00;101571.31;5038783;28;57075;-82
2023/12/26 08:36:51;;;;;;;;;0.00;0.00;;;;;16.42;100.00;101570.47;5056787;28;45332;-81
2023/12/26 08:39:17;;;;;;;;;0.00;0.00;;;;;16.42;100.00;101591.47;5056630;28;45488;-81
2023/12/26 08:41:43;;;;;;;;;0.00;0.00;;;;;16.43;100.00;101581.81;5038736;28;45302;-81
2023/12/26 08:44:09;;;;;;;;;0.00;0.00;;;;;16.42;100.00;101580.13;5056589;28;45207;-81
2023/12/26 08:46:34;;;;;;;;;0.00;0.00;;;;;16.44;100.00;101576.50;5056856;28;46619;-82
2023/12/26 08:48:59;;;;;;;;;0.00;0.00;;;;;16.39;100.00;101562.69;5022133;28;45948;-82
2023/12/26 08:51:25;;;;;;;;;0.00;0.00;;;;;16.43;100.00;101577.41;5056790;28;45407;-81
2023/12/26 08:53:50;;;;;;;;;0.00;0.00;;;;;16.41;100.00;101578.41;5056158;28;58056;-82
2023/12/26 08:56:16;;;;;;;;;0.00;0.00;;;;;16.40;100.00;101592.44;5059304;28;47127;-81
2023/12/26 08:58:41;;;;;;;;;0.00;0.00;;;;;16.37;100.00;101592.56;5045162;28;46179;-81
2023/12/26 09:01:09;;;;;;;;;0.00;0.00;;;;;16.34;100.00;101598.78;5045443;28;57234;-81
2023/12/26 09:03:35;;;;;;;;;0.00;0.00;;;;;16.33;100.00;101601.50;5045117;28;45527;-81
2023/12/26 09:06:00;;;;;;;;;0.00;0.00;;;;;16.47;100.00;101614.09;5062869;28;46468;-82
2023/12/26 09:08:26;;;;;;;;;0.00;0.00;;;;;16.28;100.00;101621.84;5042933;28;45302;-82
2023/12/26 09:10:51;;;;;;;;;0.00;0.00;;;;;16.33;100.00;101631.25;5061852;28;57253;-81
2023/12/26 09:13:20;;;;;;;;;0.00;0.00;;;;;16.28;100.00;101627.09;5061826;28;45336;-81
2023/12/26 09:15:46;;;;;;;;;0.00;0.00;;;;;16.31;100.00;101635.72;5063028;28;46458;-81
2023/12/26 09:18:12;;;;;;;;;0.00;0.00;;;;;16.37;100.00;101640.72;5044684;28;45329;-82
2023/12/26 09:20:37;;;;;;;;;0.00;0.00;;;;;16.41;100.00;101650.19;5063349;28;45293;-82
2023/12/26 09:23:03;;;;;;;;;0.00;0.00;;;;;16.37;100.00;101647.75;5045916;28;53868;-81
2023/12/26 09:25:28;;;;;;;;;0.00;0.00;;;;;16.42;100.00;101643.19;5045388;28;48157;-81
2023/12/26 09:27:53;;;;;;;;;0.00;0.00;;;;;16.48;100.00;101644.72;5061533;28;45327;-81
2023/12/26 09:30:19;;;;;;;;;0.00;0.00;;;;;16.45;100.00;101657.06;5043671;28;55312;-81
2023/12/26 09:32:45;;;;;;;;;0.00;0.00;;;;;16.43;100.00;101658.88;5044311;28;45250;-81
2023/12/26 09:35:10;;;;;;;;;0.00;0.00;;;;;16.48;100.00;101657.84;5043902;28;45352;-82
2023/12/26 09:37:38;;;;;;;;;0.00;0.00;;;;;16.52;100.00;101672.59;5046687;28;45394;-82
2023/12/26 09:40:08;;;;;;;;;0.00;0.00;;;;;16.60;100.00;101676.63;5047213;28;45303;-82
2023/12/26 09:42:33;;;;;;;;;0.00;0.00;;;;;16.65;100.00;101679.06;5047432;28;45395;-82
2023/12/26 09:44:59;;;;;;;;;0.00;0.00;;;;;16.68;100.00;101680.69;5044976;28;46325;-82
2023/12/26 09:47:25;;;;;;;;;0.00;0.00;;;;;16.69;100.00;101685.91;5063430;28;45375;-81
2023/12/26 09:49:51;;;;;;;;;0.00;0.00;;;;;16.69;100.00;101690.31;5046456;28;45404;-81
2023/12/26 09:52:17;;;;;;;;;0.00;0.00;;;;;16.65;100.00;101689.56;5059153;28;45555;-81
2023/12/26 09:54:44;;;;;;;;;0.00;0.00;;;;;16.64;100.00;101682.59;5058920;28;46228;-81
2023/12/26 09:57:09;;;;;;;;;0.00;0.00;;;;;16.72;100.00;101690.19;5041099;28;45321;-82
2023/12/26 09:59:37;;;;;;;;;0.00;0.00;;;;;16.68;100.00;101691.22;5040544;28;45992;-81
2023/12/26 10:02:03;;;;;;;;;0.00;0.00;;;;;16.69;100.00;101708.72;5058956;28;45506;-81
2023/12/26 10:04:28;;;;;;;;;0.00;0.00;;;;;16.69;100.00;101717.44;5059006;28;47114;-81
2023/12/26 10:06:53;;;;;;;;;0.00;0.00;;;;;16.60;100.00;101720.44;5058833;28;45360;-81
2023/12/26 10:09:19;;;;;;;;;0.00;0.00;;;;;16.68;100.00;101722.75;5058876;28;45345;-81
2023/12/26 10:11:45;;;;;;;;;0.00;0.00;;;;;16.66;100.00;101728.09;5058985;28;45365;-81
2023/12/26 10:14:10;;;;;;;;;0.00;0.00;;;;;16.64;100.00;101727.28;5040473;28;46450;-82
2023/12/26 10:16:36;;;;;;;;;0.00;0.00;;;;;16.64;100.00;101733.41;5058617;28;45388;-81
2023/12/26 10:19:01;;;;;;;;;0.00;0.00;;;;;16.60;100.00;101733.56;5058870;28;45281;-82
2023/12/26 10:21:27;;;;;;;;;0.00;0.00;;;;;16.55;100.00;101732.91;5058044;28;58870;-81
2023/12/26 10:23:53;;;;;;;;;0.00;0.00;;;;;16.53;100.00;101718.94;5057326;28;46515;-82
2023/12/26 10:26:19;;;;;;;;;0.00;0.00;;;;;16.60;100.00;101723.94;5040708;28;45789;-81
2023/12/26 10:28:46;;;;;;;;;0.00;0.00;;;;;16.60;100.00;101738.84;5023300;28;49453;-81
2023/12/26 10:31:17;;;;;;;;;0.00;0.00;;;;;16.61;100.00;101741.41;5040762;28;45338;-81
2023/12/26 10:33:43;;;;;;;;;0.00;0.00;;;;;16.60;100.00;101741.47;5058411;28;47200;-81
2023/12/26 10:36:12;;;;;;;;;0.00;0.00;;;;;16.58;100.00;101748.56;5040404;28;45235;-81
2023/12/26 10:38:39;;;;;;;;;0.00;0.00;;;;;16.58;100.00;101744.16;5041019;28;45369;-81
2023/12/26 10:41:23;;;;;;;;;0.00;0.00;;;;;16.63;100.00;101731.69;5056543;28;45272;-82
2023/12/26 10:43:49;;;;;;;;;1.00;1.00;;;;;16.22;100.00;101728.84;5040361;28;46407;-81
2023/12/26 10:46:17;;;;;;;;;0.00;0.00;;;;;16.17;100.00;101722.06;5040059;28;45381;-81
2023/12/26 10:48:43;;;;;;;;;0.00;0.00;;;;;16.19;100.00;101730.72;5039634;28;45472;-82
2023/12/26 10:51:09;;;;;;;;;0.00;0.00;;;;;16.18;100.00;101743.03;5058490;28;45369;-82
2023/12/26 10:53:43;;;;;;;;;0.00;0.00;;;;;16.19;100.00;101730.72;5039408;28;68090;-81
2023/12/26 10:56:13;;;;;;;;;0.00;0.00;;;;;16.19;100.00;101742.09;5040059;28;45700;-82
2023/12/26 10:58:40;;;;;;;;;6.00;6.00;;;;;16.22;100.00;101733.25;5058240;28;45454;-81
2023/12/26 11:01:16;;;;;;;;;0.00;0.00;;;;;16.23;100.00;101727.06;5058232;28;45536;-81
2023/12/26 13:51:27;;;;;;;;;0.00;0.00;;;;;16.17;100.00;101704.50;5035371;28;45322;-81
2023/12/26 13:53:53;;;;;;;;;0.00;0.00;;;;;16.29;100.00;101702.34;5035117;28;46189;-81
2023/12/26 13:56:21;;;;;;;;;0.00;0.00;;;;;16.38;100.00;101710.75;5017627;28;45300;-82
2023/12/26 13:58:46;;;;;;;;;0.00;0.00;;;;;16.52;100.00;101706.75;5017945;28;45436;-81
2023/12/26 14:01:18;;;;;;;;;0.00;0.00;;;;;16.63;100.00;101697.53;5034184;28;45555;-81